sensor_id;sensor_type;location;lat;lon;timestamp;noise_LAeq;noise_LA_min;noise_LA_max;noise_LA01;noise_LA95
76100;Laerm;64828;49.956;8.636;2023-04-25T00:00:07;42.39;38.96;45.98;;
76100;Laerm;64828;49.956;8.636;2023-04-25T00:00:24;41.64;38.98;46.49;;
76100;Laerm;64828;49.956;8.636;2023-04-25T00:00:40;41.30;38.99;43.46;;
76100;Laerm;64828;49.956;8.636;2023-04-25T00:00:56;40.30;38.25;43.21;;
76100;Laerm;64828;49.956;8.636;2023-04-25T00:01:12;40.80;37.99;42.81;;
76100;Laerm;64828;49.956;8.636;2023-04-25T00:01:28;41.27;38.77;48.82;;
76100;Laerm;64828;49.956;8.636;2023-04-25T00:01:44;41.04;39.08;44.92;;
76100;Laerm;64828;49.956;8.636;2023-04-25T00:01:59;41.53;38.86;44.82;;
76100;Laerm;64828;49.956;8.636;2023-04-25T00:02:15;41.18;39.29;45.77;;
76100;Laerm;64828;49.956;8.636;2023-04-25T00:02:30;41.15;38.70;46.43;;
76100;Laerm;64828;49.956;8.636;2023-04-25T00:02:47;41.95;39.75;45.06;;
76100;Laerm;64828;49.956;8.636;2023-04-25T00:03:03;40.44;38.32;42.65;;
76100;Laerm;64828;49.956;8.636;2023-04-25T00:03:20;40.68;38.29;42.93;;
76100;Laerm;64828;49.956;8.636;2023-04-25T00:03:36;41.01;38.84;43.10;;
76100;Laerm;64828;49.956;8.636;2023-04-25T00:03:53;41.16;39.07;44.14;;
76100;Laerm;64828;49.956;8.636;2023-04-25T00:04:08;40.73;38.19;49.99;;
76100;Laerm;64828;49.956;8.636;2023-04-25T00:04:25;40.71;38.67;42.89;;
76100;Laerm;64828;49.956;8.636;2023-04-25T00:04:42;41.00;38.34;52.32;;
76100;Laerm;64828;49.956;8.636;2023-04-25T00:04:58;40.44;38.35;43.05;;
76100;Laerm;64828;49.956;8.636;2023-04-25T00:05:14;40.13;37.71;48.48;;
76100;Laerm;64828;49.956;8.636;2023-04-25T00:05:31;40.13;38.04;48.13;;
76100;Laerm;64828;49.956;8.636;2023-04-25T00:05:47;40.35;37.40;43.21;;
76100;Laerm;64828;49.956;8.636;2023-04-25T00:06:03;40.59;38.44;47.37;;
76100;Laerm;64828;49.956;8.636;2023-04-25T00:06:19;40.17;38.08;42.21;;
76100;Laerm;64828;49.956;8.636;2023-04-25T00:06:35;39.62;37.38;43.23;;
76100;Laerm;64828;49.956;8.636;2023-04-25T00:06:51;40.48;37.36;59.09;;
76100;Laerm;64828;49.956;8.636;2023-04-25T00:07:07;40.36;37.73;50.55;;
76100;Laerm;64828;49.956;8.636;2023-04-25T00:07:24;39.83;37.00;45.71;;
76100;Laerm;64828;49.956;8.636;2023-04-25T00:07:40;39.10;37.37;41.39;;
76100;Laerm;64828;49.956;8.636;2023-04-25T00:07:58;39.43;37.16;41.92;;
76100;Laerm;64828;49.956;8.636;2023-04-25T00:08:14;39.52;37.55;42.41;;
76100;Laerm;64828;49.956;8.636;2023-04-25T00:08:30;40.09;37.66;45.14;;
76100;Laerm;64828;49.956;8.636;2023-04-25T00:08:45;40.16;38.12;49.18;;
76100;Laerm;64828;49.956;8.636;2023-04-25T00:09:06;39.81;37.74;44.99;;
76100;Laerm;64828;49.956;8.636;2023-04-25T00:09:27;40.15;37.90;42.62;;
76100;Laerm;64828;49.956;8.636;2023-04-25T00:09:44;40.69;38.53;45.31;;
76100;Laerm;64828;49.956;8.636;2023-04-25T00:10:00;40.34;38.03;49.90;;
76100;Laerm;64828;49.956;8.636;2023-04-25T00:10:16;39.75;37.22;48.53;;
76100;Laerm;64828;49.956;8.636;2023-04-25T00:10:31;39.42;37.48;44.23;;
76100;Laerm;64828;49.956;8.636;2023-04-25T00:10:47;39.82;37.36;50.72;;
76100;Laerm;64828;49.956;8.636;2023-04-25T00:11:13;40.50;37.92;53.48;;
76100;Laerm;64828;49.956;8.636;2023-04-25T00:11:29;40.08;37.64;42.53;;
76100;Laerm;64828;49.956;8.636;2023-04-25T00:11:46;39.94;37.81;41.97;;
76100;Laerm;64828;49.956;8.636;2023-04-25T00:12:02;39.87;37.68;41.92;;
76100;Laerm;64828;49.956;8.636;2023-04-25T00:12:17;40.31;38.38;42.74;;
76100;Laerm;64828;49.956;8.636;2023-04-25T00:12:33;40.52;37.99;44.83;;
76100;Laerm;64828;49.956;8.636;2023-04-25T00:12:48;40.49;38.11;42.40;;
76100;Laerm;64828;49.956;8.636;2023-04-25T00:13:04;40.53;38.51;43.84;;
76100;Laerm;64828;49.956;8.636;2023-04-25T00:13:20;40.86;37.97;44.17;;
76100;Laerm;64828;49.956;8.636;2023-04-25T00:13:36;40.44;38.28;42.65;;
76100;Laerm;64828;49.956;8.636;2023-04-25T00:13:52;40.58;38.61;42.73;;
76100;Laerm;64828;49.956;8.636;2023-04-25T00:14:08;40.80;38.74;44.17;;
76100;Laerm;64828;49.956;8.636;2023-04-25T00:14:23;40.75;38.52;47.75;;
76100;Laerm;64828;49.956;8.636;2023-04-25T00:14:39;40.89;38.80;43.65;;
76100;Laerm;64828;49.956;8.636;2023-04-25T00:14:55;41.94;38.32;45.72;;
76100;Laerm;64828;49.956;8.636;2023-04-25T00:15:12;42.24;38.81;47.98;;
76100;Laerm;64828;49.956;8.636;2023-04-25T00:15:28;40.63;38.59;42.71;;
76100;Laerm;64828;49.956;8.636;2023-04-25T00:15:46;40.11;38.05;42.03;;
76100;Laerm;64828;49.956;8.636;2023-04-25T00:16:03;40.41;38.19;43.26;;
76100;Laerm;64828;49.956;8.636;2023-04-25T00:16:19;40.67;38.82;42.75;;
76100;Laerm;64828;49.956;8.636;2023-04-25T00:16:35;40.44;38.55;43.23;;
76100;Laerm;64828;49.956;8.636;2023-04-25T00:16:51;40.48;38.04;43.29;;
76100;Laerm;64828;49.956;8.636;2023-04-25T00:17:07;41.83;39.72;47.86;;
76100;Laerm;64828;49.956;8.636;2023-04-25T00:17:23;41.87;39.79;44.42;;
76100;Laerm;64828;49.956;8.636;2023-04-25T00:17:40;42.69;39.95;56.67;;
76100;Laerm;64828;49.956;8.636;2023-04-25T00:17:56;42.41;39.92;45.55;;
76100;Laerm;64828;49.956;8.636;2023-04-25T00:18:12;42.18;39.53;44.66;;
76100;Laerm;64828;49.956;8.636;2023-04-25T00:18:28;41.54;39.32;43.82;;
76100;Laerm;64828;49.956;8.636;2023-04-25T00:18:48;41.74;39.31;43.91;;
76100;Laerm;64828;49.956;8.636;2023-04-25T00:19:07;41.39;39.17;43.48;;
76100;Laerm;64828;49.956;8.636;2023-04-25T00:19:22;41.61;39.36;43.70;;
76100;Laerm;64828;49.956;8.636;2023-04-25T00:19:38;41.69;39.28;44.37;;
76100;Laerm;64828;49.956;8.636;2023-04-25T00:19:53;42.77;40.49;45.85;;
76100;Laerm;64828;49.956;8.636;2023-04-25T00:20:10;43.36;40.27;48.48;;
76100;Laerm;64828;49.956;8.636;2023-04-25T00:20:26;43.08;40.70;48.34;;
76100;Laerm;64828;49.956;8.636;2023-04-25T00:20:41;41.90;39.76;47.35;;
76100;Laerm;64828;49.956;8.636;2023-04-25T00:21:01;41.81;39.18;43.87;;
76100;Laerm;64828;49.956;8.636;2023-04-25T00:21:18;41.32;38.69;43.01;;
76100;Laerm;64828;49.956;8.636;2023-04-25T00:21:35;41.22;39.27;43.25;;
76100;Laerm;64828;49.956;8.636;2023-04-25T00:21:52;41.63;39.11;44.51;;
76100;Laerm;64828;49.956;8.636;2023-04-25T00:22:08;41.56;38.96;44.45;;
76100;Laerm;64828;49.956;8.636;2023-04-25T00:22:24;41.09;38.52;43.29;;
76100;Laerm;64828;49.956;8.636;2023-04-25T00:22:40;41.44;39.24;45.68;;
76100;Laerm;64828;49.956;8.636;2023-04-25T00:22:55;41.03;39.07;43.61;;
76100;Laerm;64828;49.956;8.636;2023-04-25T00:23:11;41.06;38.73;44.02;;
76100;Laerm;64828;49.956;8.636;2023-04-25T00:23:26;40.58;38.50;43.01;;
76100;Laerm;64828;49.956;8.636;2023-04-25T00:23:42;41.23;38.81;43.18;;
76100;Laerm;64828;49.956;8.636;2023-04-25T00:23:58;41.80;39.27;44.03;;
76100;Laerm;64828;49.956;8.636;2023-04-25T00:24:13;41.21;39.10;42.92;;
76100;Laerm;64828;49.956;8.636;2023-04-25T00:24:29;40.71;38.51;42.58;;
76100;Laerm;64828;49.956;8.636;2023-04-25T00:24:45;40.50;38.32;43.36;;
76100;Laerm;64828;49.956;8.636;2023-04-25T00:25:00;40.43;38.37;42.66;;
76100;Laerm;64828;49.956;8.636;2023-04-25T00:25:16;40.63;38.24;42.41;;
76100;Laerm;64828;49.956;8.636;2023-04-25T00:25:32;40.62;38.28;43.28;;
76100;Laerm;64828;49.956;8.636;2023-04-25T00:25:49;40.75;38.80;43.03;;
76100;Laerm;64828;49.956;8.636;2023-04-25T00:26:05;40.71;38.63;53.23;;
76100;Laerm;64828;49.956;8.636;2023-04-25T00:26:20;40.13;37.43;42.55;;
76100;Laerm;64828;49.956;8.636;2023-04-25T00:26:36;40.87;38.45;43.61;;
76100;Laerm;64828;49.956;8.636;2023-04-25T00:26:52;40.94;38.66;44.58;;
76100;Laerm;64828;49.956;8.636;2023-04-25T00:27:07;40.30;37.51;43.30;;
76100;Laerm;64828;49.956;8.636;2023-04-25T00:27:23;40.53;38.51;42.75;;
76100;Laerm;64828;49.956;8.636;2023-04-25T00:27:38;40.58;38.42;43.47;;
76100;Laerm;64828;49.956;8.636;2023-04-25T00:27:55;41.09;38.65;47.58;;
76100;Laerm;64828;49.956;8.636;2023-04-25T00:28:11;40.41;38.37;42.22;;
76100;Laerm;64828;49.956;8.636;2023-04-25T00:28:27;40.10;37.98;41.97;;
76100;Laerm;64828;49.956;8.636;2023-04-25T00:28:43;40.30;38.25;42.30;;
76100;Laerm;64828;49.956;8.636;2023-04-25T00:28:58;40.18;38.07;42.60;;
76100;Laerm;64828;49.956;8.636;2023-04-25T00:29:14;39.74;37.31;41.47;;
76100;Laerm;64828;49.956;8.636;2023-04-25T00:29:30;39.60;37.70;41.65;;
76100;Laerm;64828;49.956;8.636;2023-04-25T00:29:45;39.79;37.52;42.19;;
76100;Laerm;64828;49.956;8.636;2023-04-25T00:30:01;39.81;37.57;43.11;;
76100;Laerm;64828;49.956;8.636;2023-04-25T00:30:18;40.38;37.76;43.17;;
76100;Laerm;64828;49.956;8.636;2023-04-25T00:30:33;40.53;37.87;42.81;;
76100;Laerm;64828;49.956;8.636;2023-04-25T00:30:49;41.18;38.89;43.87;;
76100;Laerm;64828;49.956;8.636;2023-04-25T00:31:05;40.78;38.42;43.04;;
76100;Laerm;64828;49.956;8.636;2023-04-25T00:31:20;40.95;38.70;42.86;;
76100;Laerm;64828;49.956;8.636;2023-04-25T00:31:36;40.69;38.78;42.28;;
76100;Laerm;64828;49.956;8.636;2023-04-25T00:31:52;40.27;38.03;42.65;;
76100;Laerm;64828;49.956;8.636;2023-04-25T00:32:07;40.49;37.82;43.65;;
76100;Laerm;64828;49.956;8.636;2023-04-25T00:32:23;40.05;37.44;42.45;;
76100;Laerm;64828;49.956;8.636;2023-04-25T00:32:38;40.78;38.90;42.61;;
76100;Laerm;64828;49.956;8.636;2023-04-25T00:32:54;40.73;38.45;43.42;;
76100;Laerm;64828;49.956;8.636;2023-04-25T00:33:10;40.25;38.23;42.74;;
76100;Laerm;64828;49.956;8.636;2023-04-25T00:33:25;40.20;37.98;41.94;;
76100;Laerm;64828;49.956;8.636;2023-04-25T00:33:41;40.38;38.51;42.78;;
76100;Laerm;64828;49.956;8.636;2023-04-25T00:33:57;40.00;37.63;41.99;;
76100;Laerm;64828;49.956;8.636;2023-04-25T00:34:12;40.62;38.50;42.68;;
76100;Laerm;64828;49.956;8.636;2023-04-25T00:34:28;41.19;39.02;43.33;;
76100;Laerm;64828;49.956;8.636;2023-04-25T00:34:43;41.79;39.74;43.58;;
76100;Laerm;64828;49.956;8.636;2023-04-25T00:34:59;42.13;39.93;44.87;;
76100;Laerm;64828;49.956;8.636;2023-04-25T00:35:15;41.96;39.85;43.66;;
76100;Laerm;64828;49.956;8.636;2023-04-25T00:35:31;41.18;38.62;43.33;;
76100;Laerm;64828;49.956;8.636;2023-04-25T00:35:47;40.94;38.94;42.79;;
76100;Laerm;64828;49.956;8.636;2023-04-25T00:36:02;40.99;39.00;43.40;;
76100;Laerm;64828;49.956;8.636;2023-04-25T00:36:18;40.92;39.04;42.90;;
76100;Laerm;64828;49.956;8.636;2023-04-25T00:36:34;41.61;39.52;43.65;;
76100;Laerm;64828;49.956;8.636;2023-04-25T00:36:49;41.59;38.80;43.85;;
76100;Laerm;64828;49.956;8.636;2023-04-25T00:37:05;41.79;39.65;43.70;;
76100;Laerm;64828;49.956;8.636;2023-04-25T00:37:21;41.88;39.23;43.73;;
76100;Laerm;64828;49.956;8.636;2023-04-25T00:37:37;41.88;39.82;44.80;;
76100;Laerm;64828;49.956;8.636;2023-04-25T00:37:54;41.39;39.25;43.69;;
76100;Laerm;64828;49.956;8.636;2023-04-25T00:38:10;41.02;38.17;44.11;;
76100;Laerm;64828;49.956;8.636;2023-04-25T00:38:25;41.55;39.29;43.82;;
76100;Laerm;64828;49.956;8.636;2023-04-25T00:38:41;41.30;39.12;43.51;;
76100;Laerm;64828;49.956;8.636;2023-04-25T00:38:57;41.85;39.52;44.04;;
76100;Laerm;64828;49.956;8.636;2023-04-25T00:39:12;40.80;38.71;42.66;;
76100;Laerm;64828;49.956;8.636;2023-04-25T00:39:28;40.60;38.57;42.29;;
76100;Laerm;64828;49.956;8.636;2023-04-25T00:39:44;40.42;38.30;42.91;;
76100;Laerm;64828;49.956;8.636;2023-04-25T00:39:59;40.62;38.48;42.26;;
76100;Laerm;64828;49.956;8.636;2023-04-25T00:40:15;40.27;38.32;42.58;;
76100;Laerm;64828;49.956;8.636;2023-04-25T00:40:30;40.38;38.10;42.35;;
76100;Laerm;64828;49.956;8.636;2023-04-25T00:40:46;39.89;37.90;45.20;;
76100;Laerm;64828;49.956;8.636;2023-04-25T00:41:02;40.27;38.23;43.40;;
76100;Laerm;64828;49.956;8.636;2023-04-25T00:41:19;40.42;37.10;43.01;;
76100;Laerm;64828;49.956;8.636;2023-04-25T00:41:35;39.55;37.66;41.44;;
76100;Laerm;64828;49.956;8.636;2023-04-25T00:41:52;39.89;37.48;41.81;;
76100;Laerm;64828;49.956;8.636;2023-04-25T00:42:10;40.00;38.12;42.37;;
76100;Laerm;64828;49.956;8.636;2023-04-25T00:42:27;39.73;37.25;41.91;;
76100;Laerm;64828;49.956;8.636;2023-04-25T00:42:44;39.79;37.22;42.52;;
76100;Laerm;64828;49.956;8.636;2023-04-25T00:43:01;39.88;37.81;42.16;;
76100;Laerm;64828;49.956;8.636;2023-04-25T00:43:17;39.35;36.82;41.38;;
76100;Laerm;64828;49.956;8.636;2023-04-25T00:43:33;39.06;36.83;42.41;;
76100;Laerm;64828;49.956;8.636;2023-04-25T00:43:50;39.12;36.72;41.32;;
76100;Laerm;64828;49.956;8.636;2023-04-25T00:44:08;39.75;37.20;42.65;;
76100;Laerm;64828;49.956;8.636;2023-04-25T00:44:27;40.38;38.50;42.63;;
76100;Laerm;64828;49.956;8.636;2023-04-25T00:44:45;40.32;37.95;43.49;;
76100;Laerm;64828;49.956;8.636;2023-04-25T00:45:01;40.38;38.12;42.26;;
76100;Laerm;64828;49.956;8.636;2023-04-25T00:45:18;40.40;37.96;42.32;;
76100;Laerm;64828;49.956;8.636;2023-04-25T00:45:37;40.25;38.00;42.21;;
76100;Laerm;64828;49.956;8.636;2023-04-25T00:45:53;40.08;37.97;41.93;;
76100;Laerm;64828;49.956;8.636;2023-04-25T00:46:09;40.98;38.80;43.14;;
76100;Laerm;64828;49.956;8.636;2023-04-25T00:46:25;40.69;38.38;43.53;;
76100;Laerm;64828;49.956;8.636;2023-04-25T00:46:41;40.47;38.01;43.31;;
76100;Laerm;64828;49.956;8.636;2023-04-25T00:46:57;40.36;38.29;42.77;;
76100;Laerm;64828;49.956;8.636;2023-04-25T00:47:13;40.40;37.85;43.09;;
76100;Laerm;64828;49.956;8.636;2023-04-25T00:47:29;39.96;37.67;41.85;;
76100;Laerm;64828;49.956;8.636;2023-04-25T00:47:46;40.19;38.09;42.15;;
76100;Laerm;64828;49.956;8.636;2023-04-25T00:48:04;39.82;37.38;41.73;;
76100;Laerm;64828;49.956;8.636;2023-04-25T00:48:22;40.25;38.27;42.82;;
76100;Laerm;64828;49.956;8.636;2023-04-25T00:48:38;40.30;38.28;42.18;;
76100;Laerm;64828;49.956;8.636;2023-04-25T00:48:53;40.26;37.78;42.27;;
76100;Laerm;64828;49.956;8.636;2023-04-25T00:49:09;40.93;38.46;42.69;;
76100;Laerm;64828;49.956;8.636;2023-04-25T00:49:30;40.92;38.77;43.09;;
76100;Laerm;64828;49.956;8.636;2023-04-25T00:49:46;40.65;38.47;42.92;;
76100;Laerm;64828;49.956;8.636;2023-04-25T00:50:02;40.82;38.83;42.61;;
76100;Laerm;64828;49.956;8.636;2023-04-25T00:50:17;41.12;38.88;42.92;;
76100;Laerm;64828;49.956;8.636;2023-04-25T00:50:34;41.14;38.86;43.76;;
76100;Laerm;64828;49.956;8.636;2023-04-25T00:50:57;42.09;38.98;44.58;;
76100;Laerm;64828;49.956;8.636;2023-04-25T00:51:20;42.16;39.49;45.95;;
76100;Laerm;64828;49.956;8.636;2023-04-25T00:51:36;40.87;38.95;43.58;;
76100;Laerm;64828;49.956;8.636;2023-04-25T00:51:52;40.73;38.36;42.52;;
76100;Laerm;64828;49.956;8.636;2023-04-25T00:52:08;40.67;38.45;43.26;;
76100;Laerm;64828;49.956;8.636;2023-04-25T00:52:24;41.29;39.36;43.67;;
76100;Laerm;64828;49.956;8.636;2023-04-25T00:52:43;41.89;38.74;43.99;;
76100;Laerm;64828;49.956;8.636;2023-04-25T00:53:00;42.17;40.27;43.94;;
76100;Laerm;64828;49.956;8.636;2023-04-25T00:53:15;42.20;39.68;44.97;;
76100;Laerm;64828;49.956;8.636;2023-04-25T00:53:31;45.43;39.60;69.69;;
76100;Laerm;64828;49.956;8.636;2023-04-25T00:53:49;41.47;39.25;46.31;;
76100;Laerm;64828;49.956;8.636;2023-04-25T00:54:05;41.39;38.88;46.13;;
76100;Laerm;64828;49.956;8.636;2023-04-25T00:54:21;41.63;39.75;56.29;;
76100;Laerm;64828;49.956;8.636;2023-04-25T00:54:37;41.42;39.34;53.31;;
76100;Laerm;64828;49.956;8.636;2023-04-25T00:54:53;40.51;38.54;52.48;;
76100;Laerm;64828;49.956;8.636;2023-04-25T00:55:11;40.84;38.20;43.00;;
76100;Laerm;64828;49.956;8.636;2023-04-25T00:55:27;40.77;38.66;43.46;;
76100;Laerm;64828;49.956;8.636;2023-04-25T00:55:43;40.79;37.78;43.87;;
76100;Laerm;64828;49.956;8.636;2023-04-25T00:55:59;40.04;38.05;42.03;;
76100;Laerm;64828;49.956;8.636;2023-04-25T00:56:16;39.78;37.72;41.58;;
76100;Laerm;64828;49.956;8.636;2023-04-25T00:56:31;40.13;37.44;42.14;;
76100;Laerm;64828;49.956;8.636;2023-04-25T00:56:47;40.07;37.60;42.60;;
76100;Laerm;64828;49.956;8.636;2023-04-25T00:57:03;40.07;38.01;42.18;;
76100;Laerm;64828;49.956;8.636;2023-04-25T00:57:18;40.65;38.37;43.26;;
76100;Laerm;64828;49.956;8.636;2023-04-25T00:57:34;40.65;38.16;44.52;;
76100;Laerm;64828;49.956;8.636;2023-04-25T00:57:50;40.35;37.76;42.55;;
76100;Laerm;64828;49.956;8.636;2023-04-25T00:58:06;40.25;38.27;42.25;;
76100;Laerm;64828;49.956;8.636;2023-04-25T00:58:22;40.91;38.52;43.62;;
76100;Laerm;64828;49.956;8.636;2023-04-25T00:58:38;41.96;39.59;44.09;;
76100;Laerm;64828;49.956;8.636;2023-04-25T00:58:56;41.13;37.99;43.28;;
76100;Laerm;64828;49.956;8.636;2023-04-25T00:59:13;41.59;38.93;44.81;;
76100;Laerm;64828;49.956;8.636;2023-04-25T00:59:29;41.14;38.52;43.40;;
76100;Laerm;64828;49.956;8.636;2023-04-25T00:59:46;41.37;38.87;44.36;;
76100;Laerm;64828;49.956;8.636;2023-04-25T01:00:04;41.80;39.28;44.04;;
76100;Laerm;64828;49.956;8.636;2023-04-25T01:00:21;41.79;38.64;44.75;;
76100;Laerm;64828;49.956;8.636;2023-04-25T01:00:37;42.95;39.51;60.30;;
76100;Laerm;64828;49.956;8.636;2023-04-25T01:00:52;44.55;40.55;67.60;;
76100;Laerm;64828;49.956;8.636;2023-04-25T01:01:10;44.26;39.23;66.21;;
76100;Laerm;64828;49.956;8.636;2023-04-25T01:01:26;41.59;38.86;58.89;;
76100;Laerm;64828;49.956;8.636;2023-04-25T01:01:42;43.77;39.36;56.80;;
76100;Laerm;64828;49.956;8.636;2023-04-25T01:01:59;43.36;39.21;61.46;;
76100;Laerm;64828;49.956;8.636;2023-04-25T01:02:15;41.48;38.46;57.33;;
76100;Laerm;64828;49.956;8.636;2023-04-25T01:02:33;41.04;39.03;52.31;;
76100;Laerm;64828;49.956;8.636;2023-04-25T01:02:49;40.41;37.36;44.98;;
76100;Laerm;64828;49.956;8.636;2023-04-25T01:03:05;40.42;37.57;42.80;;
76100;Laerm;64828;49.956;8.636;2023-04-25T01:03:21;41.11;38.37;55.46;;
76100;Laerm;64828;49.956;8.636;2023-04-25T01:03:38;40.85;38.39;49.02;;
76100;Laerm;64828;49.956;8.636;2023-04-25T01:03:58;39.92;37.59;43.45;;
76100;Laerm;64828;49.956;8.636;2023-04-25T01:04:14;39.88;37.72;41.72;;
76100;Laerm;64828;49.956;8.636;2023-04-25T01:04:29;40.03;37.93;43.45;;
76100;Laerm;64828;49.956;8.636;2023-04-25T01:04:45;40.09;38.04;48.72;;
76100;Laerm;64828;49.956;8.636;2023-04-25T01:05:01;40.24;38.01;42.29;;
76100;Laerm;64828;49.956;8.636;2023-04-25T01:05:17;40.34;38.11;42.91;;
76100;Laerm;64828;49.956;8.636;2023-04-25T01:05:34;40.47;37.69;51.63;;
76100;Laerm;64828;49.956;8.636;2023-04-25T01:05:50;40.77;38.17;57.40;;
76100;Laerm;64828;49.956;8.636;2023-04-25T01:06:12;40.41;37.88;43.15;;
76100;Laerm;64828;49.956;8.636;2023-04-25T01:06:28;40.26;38.14;48.14;;
76100;Laerm;64828;49.956;8.636;2023-04-25T01:06:44;39.89;37.97;41.81;;
76100;Laerm;64828;49.956;8.636;2023-04-25T01:07:00;39.90;37.43;42.44;;
76100;Laerm;64828;49.956;8.636;2023-04-25T01:07:18;40.54;37.95;56.03;;
76100;Laerm;64828;49.956;8.636;2023-04-25T01:07:33;40.05;37.95;42.17;;
76100;Laerm;64828;49.956;8.636;2023-04-25T01:07:49;39.82;37.63;43.05;;
76100;Laerm;64828;49.956;8.636;2023-04-25T01:08:05;39.93;37.81;41.66;;
76100;Laerm;64828;49.956;8.636;2023-04-25T01:08:24;40.13;37.62;47.30;;
76100;Laerm;64828;49.956;8.636;2023-04-25T01:08:43;41.65;37.88;63.13;;
76100;Laerm;64828;49.956;8.636;2023-04-25T01:08:59;40.39;38.00;47.87;;
76100;Laerm;64828;49.956;8.636;2023-04-25T01:09:15;40.02;37.56;41.91;;
76100;Laerm;64828;49.956;8.636;2023-04-25T01:09:31;39.91;37.48;45.67;;
76100;Laerm;64828;49.956;8.636;2023-04-25T01:09:52;40.45;37.83;54.24;;
76100;Laerm;64828;49.956;8.636;2023-04-25T01:10:08;39.77;37.55;43.18;;
76100;Laerm;64828;49.956;8.636;2023-04-25T01:10:24;39.19;36.72;44.14;;
76100;Laerm;64828;49.956;8.636;2023-04-25T01:10:40;39.81;37.67;47.20;;
76100;Laerm;64828;49.956;8.636;2023-04-25T01:10:55;39.97;37.35;51.67;;
76100;Laerm;64828;49.956;8.636;2023-04-25T01:11:11;40.62;38.23;55.35;;
76100;Laerm;64828;49.956;8.636;2023-04-25T01:11:26;40.24;37.77;42.25;;
76100;Laerm;64828;49.956;8.636;2023-04-25T01:11:42;40.58;38.34;42.74;;
76100;Laerm;64828;49.956;8.636;2023-04-25T01:11:58;40.57;38.39;42.60;;
76100;Laerm;64828;49.956;8.636;2023-04-25T01:12:13;40.21;37.70;42.59;;
76100;Laerm;64828;49.956;8.636;2023-04-25T01:12:30;39.55;37.33;41.40;;
76100;Laerm;64828;49.956;8.636;2023-04-25T01:12:47;39.93;37.67;43.48;;
76100;Laerm;64828;49.956;8.636;2023-04-25T01:13:03;39.89;37.66;42.98;;
76100;Laerm;64828;49.956;8.636;2023-04-25T01:13:19;40.17;37.60;46.35;;
76100;Laerm;64828;49.956;8.636;2023-04-25T01:13:35;39.40;36.79;41.59;;
76100;Laerm;64828;49.956;8.636;2023-04-25T01:13:51;39.30;37.13;41.61;;
76100;Laerm;64828;49.956;8.636;2023-04-25T01:14:07;39.93;37.43;41.89;;
76100;Laerm;64828;49.956;8.636;2023-04-25T01:14:23;40.63;38.37;45.34;;
76100;Laerm;64828;49.956;8.636;2023-04-25T01:14:39;40.16;37.82;45.96;;
76100;Laerm;64828;49.956;8.636;2023-04-25T01:14:55;39.69;37.51;42.65;;
76100;Laerm;64828;49.956;8.636;2023-04-25T01:15:11;39.49;37.71;41.39;;
76100;Laerm;64828;49.956;8.636;2023-04-25T01:15:26;39.74;37.55;42.84;;
76100;Laerm;64828;49.956;8.636;2023-04-25T01:15:42;39.55;37.67;41.42;;
76100;Laerm;64828;49.956;8.636;2023-04-25T01:15:59;40.03;38.01;48.01;;
76100;Laerm;64828;49.956;8.636;2023-04-25T01:16:15;39.96;37.62;42.25;;
76100;Laerm;64828;49.956;8.636;2023-04-25T01:16:32;40.12;37.63;42.70;;
76100;Laerm;64828;49.956;8.636;2023-04-25T01:16:48;40.01;37.83;42.54;;
76100;Laerm;64828;49.956;8.636;2023-04-25T01:17:04;40.34;38.14;44.22;;
76100;Laerm;64828;49.956;8.636;2023-04-25T01:17:20;40.45;38.08;42.52;;
76100;Laerm;64828;49.956;8.636;2023-04-25T01:17:37;40.00;37.69;42.09;;
76100;Laerm;64828;49.956;8.636;2023-04-25T01:17:53;40.07;37.87;42.86;;
76100;Laerm;64828;49.956;8.636;2023-04-25T01:18:10;39.84;36.96;42.10;;
76100;Laerm;64828;49.956;8.636;2023-04-25T01:18:27;40.00;37.50;42.60;;
76100;Laerm;64828;49.956;8.636;2023-04-25T01:18:43;39.38;36.92;41.95;;
76100;Laerm;64828;49.956;8.636;2023-04-25T01:19:00;39.56;37.21;42.04;;
76100;Laerm;64828;49.956;8.636;2023-04-25T01:19:17;40.25;37.73;42.57;;
76100;Laerm;64828;49.956;8.636;2023-04-25T01:19:33;40.11;38.13;43.14;;
76100;Laerm;64828;49.956;8.636;2023-04-25T01:19:49;40.35;37.72;42.28;;
76100;Laerm;64828;49.956;8.636;2023-04-25T01:20:07;39.99;37.63;42.20;;
76100;Laerm;64828;49.956;8.636;2023-04-25T01:20:25;40.35;38.32;42.44;;
76100;Laerm;64828;49.956;8.636;2023-04-25T01:20:42;40.18;37.95;42.31;;
76100;Laerm;64828;49.956;8.636;2023-04-25T01:21:08;40.08;37.90;42.02;;
76100;Laerm;64828;49.956;8.636;2023-04-25T01:21:25;40.29;38.13;42.47;;
76100;Laerm;64828;49.956;8.636;2023-04-25T01:21:43;40.19;37.38;42.61;;
76100;Laerm;64828;49.956;8.636;2023-04-25T01:21:59;39.89;37.61;42.25;;
76100;Laerm;64828;49.956;8.636;2023-04-25T01:22:15;39.82;37.41;42.19;;
76100;Laerm;64828;49.956;8.636;2023-04-25T01:22:32;40.02;37.92;42.55;;
76100;Laerm;64828;49.956;8.636;2023-04-25T01:22:48;40.17;38.10;42.06;;
76100;Laerm;64828;49.956;8.636;2023-04-25T01:23:04;40.66;38.71;46.45;;
76100;Laerm;64828;49.956;8.636;2023-04-25T01:23:22;39.92;37.84;42.32;;
76100;Laerm;64828;49.956;8.636;2023-04-25T01:23:40;39.62;36.95;41.54;;
76100;Laerm;64828;49.956;8.636;2023-04-25T01:23:56;40.28;37.86;43.41;;
76100;Laerm;64828;49.956;8.636;2023-04-25T01:24:13;40.48;38.24;42.51;;
76100;Laerm;64828;49.956;8.636;2023-04-25T01:24:29;41.12;38.29;43.50;;
76100;Laerm;64828;49.956;8.636;2023-04-25T01:24:45;40.39;37.96;42.46;;
76100;Laerm;64828;49.956;8.636;2023-04-25T01:25:01;40.73;37.84;43.51;;
76100;Laerm;64828;49.956;8.636;2023-04-25T01:25:18;40.94;38.35;43.09;;
76100;Laerm;64828;49.956;8.636;2023-04-25T01:25:34;41.59;38.78;43.46;;
76100;Laerm;64828;49.956;8.636;2023-04-25T01:25:50;41.86;39.27;43.88;;
76100;Laerm;64828;49.956;8.636;2023-04-25T01:26:11;42.09;39.46;44.11;;
76100;Laerm;64828;49.956;8.636;2023-04-25T01:26:27;42.17;40.11;44.74;;
76100;Laerm;64828;49.956;8.636;2023-04-25T01:26:43;42.39;40.25;44.85;;
76100;Laerm;64828;49.956;8.636;2023-04-25T01:27:04;42.56;40.37;45.67;;
76100;Laerm;64828;49.956;8.636;2023-04-25T01:27:21;42.92;40.61;45.60;;
76100;Laerm;64828;49.956;8.636;2023-04-25T01:27:38;42.89;40.08;45.31;;
76100;Laerm;64828;49.956;8.636;2023-04-25T01:27:55;42.48;40.42;52.65;;
76100;Laerm;64828;49.956;8.636;2023-04-25T01:28:12;42.74;40.32;45.86;;
76100;Laerm;64828;49.956;8.636;2023-04-25T01:28:28;43.07;40.79;45.04;;
76100;Laerm;64828;49.956;8.636;2023-04-25T01:28:45;42.59;40.39;44.64;;
76100;Laerm;64828;49.956;8.636;2023-04-25T01:29:01;42.67;40.28;46.77;;
76100;Laerm;64828;49.956;8.636;2023-04-25T01:29:21;42.12;39.39;45.30;;
76100;Laerm;64828;49.956;8.636;2023-04-25T01:29:37;42.71;40.33;45.95;;
76100;Laerm;64828;49.956;8.636;2023-04-25T01:29:54;42.00;39.03;44.78;;
76100;Laerm;64828;49.956;8.636;2023-04-25T01:30:11;42.00;39.40;44.63;;
76100;Laerm;64828;49.956;8.636;2023-04-25T01:30:27;41.25;37.98;43.99;;
76100;Laerm;64828;49.956;8.636;2023-04-25T01:30:44;42.47;39.59;44.76;;
76100;Laerm;64828;49.956;8.636;2023-04-25T01:31:01;43.17;40.84;46.36;;
76100;Laerm;64828;49.956;8.636;2023-04-25T01:31:18;41.55;38.85;45.84;;
76100;Laerm;64828;49.956;8.636;2023-04-25T01:31:34;42.36;39.37;60.61;;
76100;Laerm;64828;49.956;8.636;2023-04-25T01:31:51;44.70;40.87;66.32;;
76100;Laerm;64828;49.956;8.636;2023-04-25T01:32:08;43.28;40.73;56.23;;